createdAt,value
2019-05-22T00:00:56.808Z,91.20
2019-05-22T00:03:29.535Z,91.10
2019-05-22T00:06:01.035Z,91.40
2019-05-22T00:08:32.373Z,91.20
2019-05-22T00:11:04.649Z,91.80
2019-05-22T00:13:38.799Z,91.90
2019-05-22T00:16:12.318Z,91.30
2019-05-22T00:18:43.182Z,91.20
2019-05-22T00:21:15.212Z,91.30
2019-05-22T00:23:47.913Z,91.30
2019-05-22T00:26:20.395Z,91.10
2019-05-22T00:28:51.795Z,91.20
2019-05-22T00:31:23.278Z,91.70
2019-05-22T00:33:54.312Z,91.70
2019-05-22T00:36:25.071Z,91.20
2019-05-22T00:38:57.582Z,91.20
2019-05-22T00:41:29.743Z,91.10
2019-05-22T00:44:00.769Z,91.10
2019-05-22T00:46:32.166Z,91.20
2019-05-22T00:49:03.225Z,91.10
2019-05-22T00:51:36.208Z,91.10
2019-05-22T00:54:10.429Z,91.10
2019-05-22T00:56:41.130Z,91.20
2019-05-22T00:59:14.656Z,91.00
2019-05-22T01:01:46.190Z,90.80
2019-05-22T01:04:18.403Z,91.00
2019-05-22T01:06:49.904Z,91.20
2019-05-22T01:09:23.408Z,91.00
2019-05-22T01:11:53.395Z,90.90
2019-05-22T01:14:25.085Z,91.00
2019-05-22T01:16:58.118Z,90.90
2019-05-22T01:19:31.680Z,90.70
2019-05-22T01:22:03.763Z,90.80
2019-05-22T01:24:36.061Z,90.90
2019-05-22T01:27:08.497Z,90.80
2019-05-22T01:29:40.569Z,90.60
2019-05-22T01:32:12.905Z,90.70
2019-05-22T01:34:44.295Z,90.70
2019-05-22T01:37:16.452Z,90.80
2019-05-22T01:39:51.003Z,90.70
2019-05-22T01:42:25.442Z,90.40
2019-05-22T01:45:04.966Z,90.40
2019-05-22T01:47:31.059Z,90.40
2019-05-22T01:50:02.605Z,90.20
2019-05-22T01:52:33.854Z,90.20
2019-05-22T01:55:06.393Z,90.20
2019-05-22T01:57:38.786Z,90.40
2019-05-22T02:00:10.905Z,90.50
2019-05-22T02:02:43.288Z,90.00
2019-05-22T02:05:15.803Z,90.30
2019-05-22T02:07:47.018Z,90.50
2019-05-22T02:10:20.229Z,90.40
2019-05-22T02:12:53.333Z,90.00
2019-05-22T02:15:26.282Z,90.00
2019-05-22T02:17:58.403Z,90.00
2019-05-22T02:20:29.794Z,90.00
2019-05-22T02:23:01.121Z,89.50
2019-05-22T02:25:33.545Z,89.60
2019-05-22T02:28:05.147Z,89.30
2019-05-22T02:30:39.134Z,89.20
2019-05-22T02:33:11.822Z,89.50
2019-05-22T02:35:43.379Z,89.20
2019-05-22T02:38:14.257Z,89.20
2019-05-22T02:40:47.093Z,88.90
2019-05-22T02:43:19.865Z,89.20
2019-05-22T02:45:51.456Z,89.10
2019-05-22T02:48:23.977Z,89.00
2019-05-22T02:50:56.030Z,88.90
2019-05-22T02:53:27.607Z,88.50
2019-05-22T02:55:59.856Z,89.70
2019-05-22T02:58:32.724Z,87.90
2019-05-22T03:01:06.596Z,88.10
2019-05-22T03:03:38.817Z,88.70
2019-05-22T03:06:13.361Z,88.90
2019-05-22T03:08:47.169Z,88.70
2019-05-22T03:11:19.233Z,88.80
2019-05-22T03:13:53.118Z,88.40
2019-05-22T03:16:26.687Z,88.70
2019-05-22T03:19:08.172Z,88.10
2019-05-22T03:21:29.928Z,87.90
2019-05-22T03:24:02.241Z,87.50
2019-05-22T03:26:35.497Z,87.50
2019-05-22T03:29:07.987Z,87.20
2019-05-22T03:31:39.209Z,87.30
2019-05-22T03:34:11.364Z,86.60
2019-05-22T03:36:43.045Z,86.60
2019-05-22T03:39:15.306Z,86.30
2019-05-22T03:41:46.286Z,85.30
2019-05-22T03:44:18.598Z,84.60
2019-05-22T03:46:50.778Z,84.30
2019-05-22T03:49:30.543Z,83.90
2019-05-22T03:51:56.762Z,83.40
2019-05-22T03:54:27.828Z,83.20
2019-05-22T03:56:59.820Z,83.10
2019-05-22T03:59:31.080Z,82.30
2019-05-22T04:02:02.530Z,81.40
2019-05-22T04:04:36.774Z,81.20
2019-05-22T04:07:09.403Z,80.40
2019-05-22T04:09:41.492Z,79.30
2019-05-22T04:12:12.755Z,79.00
2019-05-22T04:14:43.983Z,79.80
2019-05-22T04:17:16.012Z,79.10
2019-05-22T04:19:51.382Z,78.80
2019-05-22T04:22:21.056Z,78.40
2019-05-22T04:24:52.579Z,78.40
2019-05-22T04:27:24.160Z,78.10
2019-05-22T04:29:55.421Z,78.10
2019-05-22T04:32:26.812Z,77.40
2019-05-22T04:34:58.736Z,77.30
2019-05-22T04:37:30.566Z,76.90
2019-05-22T04:40:04.731Z,76.70
2019-05-22T04:42:35.831Z,76.10
2019-05-22T04:45:09.587Z,76.10
2019-05-22T04:47:41.360Z,75.50
2019-05-22T04:50:13.026Z,74.60
2019-05-22T04:52:43.933Z,74.20
2019-05-22T04:55:15.703Z,74.10
2019-05-22T04:57:47.101Z,74.00
2019-05-22T05:00:20.108Z,73.70
2019-05-22T05:02:53.151Z,72.80
2019-05-22T05:05:26.488Z,72.20
2019-05-22T05:07:57.399Z,73.10
2019-05-22T05:10:28.864Z,71.70
2019-05-22T05:13:01.375Z,71.50
2019-05-22T05:15:32.273Z,72.10
2019-05-22T05:18:03.189Z,72.10
2019-05-22T05:20:34.089Z,71.50
2019-05-22T05:23:04.910Z,71.70
2019-05-22T05:25:35.915Z,70.70
2019-05-22T05:28:08.595Z,70.50
2019-05-22T05:30:39.518Z,69.40
2019-05-22T05:33:10.443Z,70.30
2019-05-22T05:35:41.423Z,70.20
2019-05-22T05:38:13.782Z,69.10
2019-05-22T05:40:45.203Z,68.20
2019-05-22T05:43:17.933Z,67.20
2019-05-22T05:45:51.138Z,67.50
2019-05-22T05:48:23.606Z,67.50
2019-05-22T05:50:56.775Z,66.50
2019-05-22T05:53:27.852Z,66.50
2019-05-22T05:56:02.450Z,66.70
2019-05-22T05:58:34.112Z,65.30
2019-05-22T06:01:08.667Z,65.60
2019-05-22T06:03:41.753Z,65.30
2019-05-22T06:06:15.542Z,66.10
2019-05-22T06:08:47.585Z,64.40
2019-05-22T06:11:20.824Z,63.60
2019-05-22T06:13:51.667Z,64.50
2019-05-22T06:16:26.033Z,63.60
2019-05-22T06:18:57.296Z,63.00
2019-05-22T06:21:28.435Z,63.60
2019-05-22T06:24:01.818Z,63.20
2019-05-22T06:26:35.285Z,63.60
2019-05-22T06:29:06.928Z,63.00
2019-05-22T06:31:40.492Z,63.10
2019-05-22T06:34:11.934Z,62.10
2019-05-22T06:36:43.522Z,60.80
2019-05-22T06:39:16.544Z,60.80
2019-05-22T06:41:49.777Z,60.10
2019-05-22T06:44:20.750Z,60.50
2019-05-22T06:46:51.837Z,60.20
2019-05-22T06:49:25.013Z,60.60
2019-05-22T06:51:56.053Z,60.00
2019-05-22T06:54:26.916Z,59.90
2019-05-22T06:56:58.071Z,59.00
2019-05-22T06:59:29.367Z,58.80
2019-05-22T07:02:02.013Z,58.40
2019-05-22T07:04:32.848Z,57.90
2019-05-22T07:07:04.421Z,57.60
2019-05-22T07:09:36.783Z,58.40
2019-05-22T07:12:07.671Z,58.60
2019-05-22T07:14:40.849Z,58.20
2019-05-22T07:17:12.263Z,57.50
2019-05-22T07:19:44.992Z,57.00
2019-05-22T07:22:16.590Z,55.30
2019-05-22T07:24:48.162Z,56.80
2019-05-22T07:27:21.515Z,55.60
2019-05-22T07:29:51.622Z,55.60
2019-05-22T07:32:22.942Z,55.00
2019-05-22T07:34:54.153Z,56.60
2019-05-22T07:37:25.887Z,55.70
2019-05-22T07:39:57.309Z,55.70
2019-05-22T07:42:28.000Z,56.30
2019-05-22T07:44:58.986Z,56.00
2019-05-22T07:47:30.282Z,55.10
2019-05-22T07:50:01.515Z,55.30
2019-05-22T07:52:32.883Z,54.40
2019-05-22T07:55:04.457Z,54.90
2019-05-22T07:57:36.699Z,55.50
2019-05-22T08:00:08.130Z,54.60
2019-05-22T08:02:41.430Z,54.60
2019-05-22T08:05:12.853Z,53.60
2019-05-22T08:07:44.788Z,54.80
2019-05-22T08:10:17.209Z,55.40
2019-05-22T08:12:48.760Z,54.50
2019-05-22T08:15:22.321Z,55.30
2019-05-22T08:17:53.491Z,55.10
2019-05-22T08:20:24.587Z,54.70
2019-05-22T08:22:58.053Z,54.90
2019-05-22T08:25:29.676Z,54.00
2019-05-22T08:28:01.011Z,54.60
2019-05-22T08:30:32.268Z,55.00
2019-05-22T08:33:06.232Z,55.20
2019-05-22T08:35:38.411Z,54.70
2019-05-22T08:38:11.173Z,55.10
2019-05-22T08:40:43.603Z,54.40
2019-05-22T08:43:14.551Z,54.20
2019-05-22T08:45:46.906Z,54.20
2019-05-22T08:48:19.155Z,53.10
2019-05-22T08:50:50.597Z,54.60
2019-05-22T08:53:22.346Z,53.90
2019-05-22T08:55:53.720Z,54.10
2019-05-22T08:58:24.963Z,54.80
2019-05-22T09:00:56.086Z,54.90
2019-05-22T09:03:27.666Z,55.00
2019-05-22T09:05:58.627Z,55.10
2019-05-22T09:08:30.522Z,53.70
2019-05-22T09:11:01.907Z,54.50
2019-05-22T09:13:33.437Z,55.00
2019-05-22T09:16:05.376Z,55.30
2019-05-22T09:18:37.488Z,54.10
2019-05-22T09:21:09.205Z,54.20
2019-05-22T09:23:40.338Z,54.10
2019-05-22T09:26:12.375Z,53.70
2019-05-22T09:28:43.540Z,54.90
2019-05-22T09:31:14.599Z,55.40
2019-05-22T09:33:45.793Z,55.40
2019-05-22T09:36:17.195Z,54.30
2019-05-22T09:38:51.891Z,55.10
2019-05-22T09:41:21.037Z,56.00
2019-05-22T09:43:52.004Z,55.20
2019-05-22T09:46:23.740Z,55.60
2019-05-22T09:48:55.196Z,55.00
2019-05-22T09:51:26.069Z,54.10
2019-05-22T09:53:57.917Z,53.60
2019-05-22T09:56:31.013Z,53.80
2019-05-22T09:59:00.838Z,53.50
2019-05-22T10:01:32.322Z,53.40
2019-05-22T10:04:04.181Z,54.10
2019-05-22T10:06:35.345Z,54.00
2019-05-22T10:09:07.951Z,53.60
2019-05-22T10:11:39.192Z,54.50
2019-05-22T10:14:11.160Z,54.50
2019-05-22T10:16:42.916Z,55.40
2019-05-22T10:19:14.478Z,55.80
2019-05-22T10:21:46.348Z,55.70
2019-05-22T10:24:17.587Z,55.70
2019-05-22T10:26:48.933Z,55.60
2019-05-22T10:29:20.033Z,56.50
2019-05-22T10:31:51.190Z,55.70
2019-05-22T10:34:22.386Z,56.10
2019-05-22T10:36:53.414Z,56.20
2019-05-22T10:39:24.795Z,56.60
2019-05-22T10:41:56.357Z,57.00
2019-05-22T10:44:27.351Z,57.20
2019-05-22T10:46:58.400Z,57.40
2019-05-22T10:49:29.393Z,58.20
2019-05-22T10:52:00.471Z,58.80
2019-05-22T10:54:31.341Z,58.90
2019-05-22T10:57:02.855Z,59.30
2019-05-22T10:59:33.826Z,59.40
2019-05-22T11:02:05.143Z,59.70
2019-05-22T11:04:37.623Z,60.00
2019-05-22T11:07:09.278Z,60.20
2019-05-22T11:09:41.946Z,60.40
2019-05-22T11:12:13.595Z,60.80
2019-05-22T11:14:45.935Z,61.20
2019-05-22T11:17:16.867Z,61.70
2019-05-22T11:19:48.000Z,62.00
2019-05-22T11:22:20.163Z,62.30
2019-05-22T11:24:51.423Z,62.70
2019-05-22T11:27:22.551Z,63.10
2019-05-22T11:29:54.193Z,63.70
2019-05-22T11:32:25.110Z,63.60
2019-05-22T11:34:56.142Z,64.20
2019-05-22T11:37:27.601Z,64.30
2019-05-22T11:39:58.848Z,64.50
2019-05-22T11:42:29.723Z,64.80
2019-05-22T11:45:01.193Z,65.20
2019-05-22T11:47:32.452Z,65.50
2019-05-22T11:50:03.295Z,66.00
2019-05-22T11:52:34.457Z,66.10
2019-05-22T11:55:07.712Z,66.50
2019-05-22T11:57:40.407Z,66.90
2019-05-22T12:00:12.628Z,67.10
2019-05-22T12:02:45.123Z,67.10
2019-05-22T12:05:17.962Z,67.60
2019-05-22T12:07:49.474Z,67.70
2019-05-22T12:10:23.072Z,68.10
2019-05-22T12:12:54.687Z,68.30
2019-05-22T12:15:28.451Z,68.30
2019-05-22T12:18:00.026Z,68.60
2019-05-22T12:20:32.901Z,68.90
2019-05-22T12:23:04.725Z,69.20
2019-05-22T12:25:36.421Z,69.60
2019-05-22T12:28:07.123Z,69.90
2019-05-22T12:30:38.423Z,70.20
2019-05-22T12:33:13.646Z,70.70
2019-05-22T12:35:45.056Z,70.70
2019-05-22T12:38:16.252Z,71.30
2019-05-22T12:40:47.735Z,71.20
2019-05-22T12:43:19.504Z,71.80
2019-05-22T12:45:50.642Z,72.30
2019-05-22T12:48:21.623Z,71.80
2019-05-22T12:50:53.671Z,71.90
2019-05-22T12:53:25.073Z,72.50
2019-05-22T12:55:56.803Z,72.70
2019-05-22T12:58:28.261Z,73.00
2019-05-22T13:01:00.899Z,73.10
2019-05-22T13:03:34.639Z,73.50
2019-05-22T13:06:06.428Z,73.50
2019-05-22T13:08:39.061Z,73.60
2019-05-22T13:11:11.156Z,73.90
2019-05-22T13:13:42.118Z,74.20
2019-05-22T13:16:14.014Z,74.60
2019-05-22T13:18:45.853Z,74.40
2019-05-22T13:21:19.866Z,74.30
2019-05-22T13:23:52.543Z,74.70
2019-05-22T13:26:26.162Z,74.70
2019-05-22T13:28:58.175Z,74.30
2019-05-22T13:31:28.914Z,75.00
2019-05-22T13:34:02.555Z,75.20
2019-05-22T13:36:34.179Z,75.20
2019-05-22T13:39:08.430Z,75.30
2019-05-22T13:41:39.727Z,75.60
2019-05-22T13:44:11.246Z,75.30
2019-05-22T13:46:42.192Z,75.80
2019-05-22T13:49:13.345Z,75.90
2019-05-22T13:51:44.812Z,76.00
2019-05-22T13:54:16.661Z,76.10
2019-05-22T13:56:48.261Z,75.80
2019-05-22T13:59:20.110Z,76.00
2019-05-22T14:01:51.782Z,76.00
2019-05-22T14:04:22.741Z,76.00
2019-05-22T14:06:54.117Z,76.20
2019-05-22T14:09:25.283Z,76.80
2019-05-22T14:11:56.967Z,76.10
2019-05-22T14:14:28.489Z,76.30
2019-05-22T14:17:00.158Z,76.20
2019-05-22T14:19:31.754Z,77.10
2019-05-22T14:22:03.284Z,76.10
2019-05-22T14:24:34.354Z,76.40
2019-05-22T14:27:05.674Z,76.40
2019-05-22T14:29:37.405Z,76.60
2019-05-22T14:32:09.685Z,76.50
2019-05-22T14:34:40.514Z,76.70
2019-05-22T14:37:13.476Z,76.50
2019-05-22T14:39:44.301Z,76.80
2019-05-22T14:42:16.476Z,76.80
2019-05-22T14:44:48.109Z,77.20
2019-05-22T14:47:19.256Z,77.20
2019-05-22T14:49:50.264Z,77.30
2019-05-22T14:52:21.829Z,77.50
2019-05-22T14:54:52.928Z,77.40
2019-05-22T14:57:24.854Z,77.40
2019-05-22T14:59:56.376Z,77.30
2019-05-22T15:02:27.437Z,77.50
2019-05-22T15:04:58.996Z,77.50
2019-05-22T15:07:30.161Z,77.50
2019-05-22T15:10:01.229Z,77.50
2019-05-22T15:12:32.736Z,77.60
2019-05-22T15:15:04.221Z,77.50
2019-05-22T15:17:35.958Z,77.50
2019-05-22T15:20:09.118Z,77.90
2019-05-22T15:22:40.567Z,78.20
2019-05-22T15:25:11.962Z,78.30
2019-05-22T15:27:43.093Z,78.20
2019-05-22T15:30:15.219Z,78.40
2019-05-22T15:32:46.717Z,78.20
2019-05-22T15:35:20.122Z,78.40
2019-05-22T15:37:51.098Z,78.10
2019-05-22T15:40:23.217Z,78.10
2019-05-22T15:42:55.331Z,78.30
2019-05-22T15:45:28.627Z,78.30
2019-05-22T15:48:01.786Z,78.90
2019-05-22T15:50:35.484Z,78.80
2019-05-22T15:53:12.279Z,78.70
2019-05-22T15:55:43.041Z,78.70
2019-05-22T15:58:16.638Z,78.70
2019-05-22T16:00:48.712Z,78.70
2019-05-22T16:03:22.742Z,78.70
2019-05-22T16:05:55.246Z,79.00
2019-05-22T16:08:26.595Z,79.20
2019-05-22T16:11:00.249Z,79.00
2019-05-22T16:13:33.965Z,79.50
2019-05-22T16:16:07.669Z,79.30
2019-05-22T16:18:39.600Z,79.40
2019-05-22T16:21:12.101Z,79.60
2019-05-22T16:23:43.839Z,79.40
2019-05-22T16:26:15.801Z,79.40
2019-05-22T16:28:49.627Z,79.30
2019-05-22T16:31:22.244Z,79.20
2019-05-22T16:33:54.961Z,79.40
2019-05-22T16:36:27.033Z,79.50
2019-05-22T16:38:59.833Z,79.70
2019-05-22T16:41:31.413Z,79.80
2019-05-22T16:44:02.962Z,79.90
2019-05-22T16:46:34.856Z,79.70
2019-05-22T16:49:06.642Z,80.20
2019-05-22T16:51:37.733Z,80.00
2019-05-22T16:54:11.090Z,80.00
2019-05-22T16:56:43.547Z,79.90
2019-05-22T16:59:15.597Z,80.30
2019-05-22T17:01:58.713Z,80.10
2019-05-22T17:04:19.858Z,79.70
2019-05-22T17:06:50.768Z,79.90
2019-05-22T17:09:23.353Z,80.40
2019-05-22T17:11:54.786Z,80.30
2019-05-22T17:14:26.296Z,80.30
2019-05-22T17:16:57.629Z,80.40
2019-05-22T17:19:28.700Z,80.50
2019-05-22T17:21:59.533Z,80.30
2019-05-22T17:24:33.984Z,80.50
2019-05-22T17:27:05.686Z,80.30
2019-05-22T17:29:36.829Z,81.10
2019-05-22T17:32:09.373Z,80.70
2019-05-22T17:34:40.313Z,80.60
2019-05-22T17:37:14.753Z,80.60
2019-05-22T17:39:49.708Z,81.80
2019-05-22T17:42:23.057Z,81.30
2019-05-22T17:44:53.976Z,81.30
2019-05-22T17:47:27.542Z,81.00
2019-05-22T17:49:59.584Z,81.10
2019-05-22T17:52:30.785Z,81.10
2019-05-22T17:55:02.003Z,81.10
2019-05-22T17:57:34.327Z,81.90
2019-05-22T18:00:07.628Z,81.30
2019-05-22T18:02:38.929Z,81.30
2019-05-22T18:05:10.907Z,81.70
2019-05-22T18:07:42.940Z,81.80
2019-05-22T18:10:14.598Z,81.90
2019-05-22T18:12:45.343Z,82.00
2019-05-22T18:15:17.370Z,82.10
2019-05-22T18:17:48.598Z,82.10
2019-05-22T18:20:20.319Z,82.20
2019-05-22T18:22:51.731Z,82.10
2019-05-22T18:25:23.051Z,81.70
2019-05-22T18:27:55.858Z,81.70
2019-05-22T18:30:28.628Z,82.00
2019-05-22T18:32:59.736Z,81.70
2019-05-22T18:35:31.061Z,82.00
2019-05-22T18:38:04.807Z,82.20
2019-05-22T18:40:34.894Z,82.20
2019-05-22T18:43:05.802Z,82.30
2019-05-22T18:45:37.865Z,82.20
2019-05-22T18:48:09.141Z,82.40
2019-05-22T18:50:40.380Z,82.40
2019-05-22T18:53:11.891Z,82.40
2019-05-22T18:55:42.654Z,82.40
2019-05-22T18:58:13.800Z,82.60
2019-05-22T19:00:45.173Z,82.90
2019-05-22T19:03:16.160Z,82.80
2019-05-22T19:05:47.292Z,82.80
2019-05-22T19:08:18.322Z,83.10
2019-05-22T19:10:49.400Z,82.90
2019-05-22T19:13:20.456Z,83.00
2019-05-22T19:15:54.582Z,83.20
2019-05-22T19:18:25.660Z,83.20
2019-05-22T19:20:56.483Z,83.40
2019-05-22T19:23:27.509Z,83.50
2019-05-22T19:25:58.735Z,83.30
2019-05-22T19:28:42.975Z,83.60
2019-05-22T19:31:02.364Z,83.70
2019-05-22T19:33:33.305Z,83.70
2019-05-22T19:36:04.826Z,83.70
2019-05-22T19:38:36.251Z,83.60
2019-05-22T19:41:07.413Z,83.90
2019-05-22T19:43:39.021Z,83.10
2019-05-22T19:46:10.605Z,83.80
2019-05-22T19:48:41.877Z,83.60
2019-05-22T19:51:15.211Z,83.80
2019-05-22T19:53:47.578Z,83.70
2019-05-22T19:56:23.628Z,83.70
2019-05-22T19:58:53.199Z,83.60
2019-05-22T20:01:24.355Z,83.60
2019-05-22T20:03:55.496Z,83.70
2019-05-22T20:06:26.800Z,83.50
2019-05-22T20:08:58.570Z,83.50
2019-05-22T20:11:29.918Z,83.20
2019-05-22T20:14:01.222Z,83.60
2019-05-22T20:16:32.469Z,83.90
2019-05-22T20:19:03.258Z,84.00
2019-05-22T20:21:34.232Z,83.60
2019-05-22T20:24:05.652Z,83.60
2019-05-22T20:26:36.995Z,83.80
2019-05-22T20:29:08.597Z,84.00
2019-05-22T20:31:39.939Z,84.00
2019-05-22T20:34:11.324Z,84.10
2019-05-22T20:36:42.778Z,84.20
2019-05-22T20:39:15.813Z,84.00
2019-05-22T20:41:47.201Z,84.10
2019-05-22T20:44:18.161Z,83.90
2019-05-22T20:46:50.016Z,83.90
2019-05-22T20:49:21.191Z,84.10
2019-05-22T20:51:52.484Z,83.70
2019-05-22T20:54:24.390Z,83.60
2019-05-22T20:56:55.866Z,83.50
2019-05-22T20:59:27.576Z,83.70
2019-05-22T21:01:58.521Z,83.80
2019-05-22T21:04:30.805Z,83.90
2019-05-22T21:07:04.604Z,83.70
2019-05-22T21:09:36.321Z,83.60
2019-05-22T21:12:09.508Z,83.40
2019-05-22T21:14:41.117Z,83.20
2019-05-22T21:17:12.309Z,83.60
2019-05-22T21:19:44.684Z,83.70
2019-05-22T21:22:18.888Z,83.40
2019-05-22T21:24:50.999Z,83.60
2019-05-22T21:27:22.680Z,83.70
2019-05-22T21:29:54.786Z,83.70
2019-05-22T21:32:26.579Z,83.60
2019-05-22T21:34:58.699Z,83.80
2019-05-22T21:37:29.763Z,83.80
2019-05-22T21:40:00.953Z,83.90
2019-05-22T21:42:32.468Z,84.00
2019-05-22T21:45:03.466Z,83.90
2019-05-22T21:47:34.904Z,83.90
2019-05-22T21:50:07.871Z,84.20
2019-05-22T21:52:39.127Z,85.00
2019-05-22T21:55:12.111Z,84.40
2019-05-22T21:57:43.587Z,84.30
2019-05-22T22:00:17.969Z,84.30
2019-05-22T22:02:50.443Z,84.40
2019-05-22T22:05:22.359Z,84.50
2019-05-22T22:07:53.415Z,84.50
2019-05-22T22:10:24.725Z,84.50
2019-05-22T22:12:55.850Z,84.60
2019-05-22T22:15:27.278Z,84.50
2019-05-22T22:17:58.310Z,84.50
2019-05-22T22:20:29.409Z,84.60
2019-05-22T22:23:00.767Z,84.60
2019-05-22T22:25:32.212Z,84.50
2019-05-22T22:28:03.380Z,84.70
2019-05-22T22:30:35.803Z,85.00
2019-05-22T22:33:10.217Z,85.20
2019-05-22T22:35:42.188Z,85.00
2019-05-22T22:38:14.802Z,85.10
2019-05-22T22:40:45.782Z,85.10
2019-05-22T22:43:17.540Z,85.10
2019-05-22T22:45:51.903Z,85.40
2019-05-22T22:48:24.366Z,85.60
2019-05-22T22:50:56.914Z,85.50
2019-05-22T22:53:28.197Z,85.50
2019-05-22T22:55:59.825Z,85.60
2019-05-22T22:58:31.627Z,85.50
2019-05-22T23:01:05.309Z,85.70
2019-05-22T23:03:37.370Z,85.80
2019-05-22T23:06:10.411Z,85.90
2019-05-22T23:08:42.063Z,86.20
2019-05-22T23:11:13.398Z,86.10
2019-05-22T23:13:44.490Z,86.20
2019-05-22T23:16:16.491Z,86.00
2019-05-22T23:18:49.780Z,86.20
2019-05-22T23:21:20.059Z,86.50
2019-05-22T23:23:49.736Z,86.40
2019-05-22T23:26:20.928Z,86.90
2019-05-22T23:28:52.536Z,86.90
2019-05-22T23:31:25.077Z,87.40
2019-05-22T23:33:56.575Z,87.20
2019-05-22T23:36:28.574Z,86.90
2019-05-22T23:39:02.052Z,87.00
2019-05-22T23:41:33.410Z,86.80
2019-05-22T23:44:05.315Z,86.70
2019-05-22T23:46:36.457Z,86.90
2019-05-22T23:49:07.250Z,86.90
2019-05-22T23:51:38.632Z,86.60
2019-05-22T23:54:11.053Z,86.30
2019-05-22T23:56:42.863Z,85.80
2019-05-22T23:59:15.376Z,85.50
